createdAt,value
2023-03-20T00:01:33.494Z,7.13
2023-03-20T00:04:00.190Z,4.03
2023-03-20T00:06:31.430Z,3.90
2023-03-20T00:08:58.472Z,3.28
2023-03-20T00:11:29.414Z,5.57
2023-03-20T00:13:58.590Z,11.50
2023-03-20T00:16:30.547Z,8.18
2023-03-20T00:18:57.852Z,3.83
2023-03-20T00:21:24.922Z,4.68
2023-03-20T00:23:51.585Z,4.03
2023-03-20T00:26:19.764Z,4.38
2023-03-20T00:28:48.248Z,4.35
2023-03-20T00:31:20.810Z,3.70
2023-03-20T00:33:47.675Z,3.65
2023-03-20T00:36:14.393Z,3.22
2023-03-20T00:38:41.100Z,3.58
2023-03-20T00:41:28.774Z,4.25
2023-03-20T00:43:59.628Z,2.88
2023-03-20T00:46:27.350Z,3.05
2023-03-20T00:48:54.774Z,4.35
2023-03-20T00:51:22.362Z,3.67
2023-03-20T00:53:49.033Z,3.30
2023-03-20T00:56:33.204Z,3.90
2023-03-20T00:59:02.225Z,6.28
2023-03-20T01:01:31.396Z,5.32
2023-03-20T01:04:02.052Z,3.45
2023-03-20T01:06:29.716Z,6.10
2023-03-20T01:08:57.726Z,3.75
2023-03-20T01:11:26.107Z,6.47
2023-03-20T01:13:52.841Z,4.95
2023-03-20T01:16:25.027Z,3.40
2023-03-20T01:21:19.537Z,3.95
2023-03-20T01:23:46.781Z,5.85
2023-03-20T01:26:32.968Z,4.32
2023-03-20T01:29:00.006Z,4.57
2023-03-20T01:31:27.600Z,3.65
2023-03-20T01:33:54.296Z,5.05
2023-03-20T01:36:23.834Z,3.95
2023-03-20T01:38:56.334Z,4.55
2023-03-20T01:41:26.509Z,3.88
2023-03-20T01:43:53.734Z,4.13
2023-03-20T01:46:31.921Z,4.90
2023-03-20T01:49:19.342Z,4.13
2023-03-20T01:51:51.369Z,4.80
2023-03-20T01:54:24.234Z,4.35
2023-03-20T01:57:11.378Z,5.35
2023-03-20T01:59:46.176Z,5.00
2023-03-20T02:02:19.508Z,5.65
2023-03-20T02:04:51.090Z,5.40
2023-03-20T02:07:21.395Z,4.95
2023-03-20T02:10:16.424Z,9.05
2023-03-20T02:12:53.048Z,6.20
2023-03-20T02:15:29.905Z,6.75
2023-03-20T02:18:09.060Z,8.00
2023-03-20T02:21:02.102Z,7.57
2023-03-20T02:24:00.043Z,7.07
2023-03-20T02:26:34.272Z,5.88
2023-03-20T02:29:19.848Z,7.38
2023-03-20T02:31:49.602Z,7.43
2023-03-20T02:34:47.417Z,7.00
2023-03-20T02:37:41.941Z,7.63
2023-03-20T02:40:22.004Z,6.97
2023-03-20T02:43:03.773Z,7.50
2023-03-20T02:46:03.072Z,7.95
2023-03-20T02:48:36.560Z,9.65
2023-03-20T02:53:52.529Z,7.20
2023-03-20T02:56:32.097Z,8.52
2023-03-20T02:59:26.232Z,8.45
2023-03-20T03:01:58.099Z,7.63
2023-03-20T03:04:29.976Z,7.72
2023-03-20T03:07:02.980Z,7.90
2023-03-20T03:09:35.673Z,7.03
2023-03-20T03:12:18.163Z,7.78
2023-03-20T03:14:55.284Z,10.70
2023-03-20T03:17:26.304Z,7.28
2023-03-20T03:19:58.123Z,7.40
2023-03-20T03:22:25.936Z,8.23
2023-03-20T03:24:54.518Z,8.93
2023-03-20T03:27:29.028Z,9.85
2023-03-20T03:29:58.590Z,7.18
2023-03-20T03:32:44.847Z,6.38
2023-03-20T03:35:17.156Z,6.20
2023-03-20T03:38:22.583Z,6.95
2023-03-20T03:41:05.329Z,6.72
2023-03-20T03:43:46.046Z,7.68
2023-03-20T03:46:23.255Z,6.07
2023-03-20T03:48:57.142Z,5.90
2023-03-20T03:51:28.064Z,6.85
2023-03-20T03:54:31.054Z,5.32
2023-03-20T03:57:35.067Z,5.63
2023-03-20T04:00:06.693Z,4.95
2023-03-20T04:02:40.670Z,4.80
2023-03-20T04:05:08.594Z,5.05
2023-03-20T04:07:35.322Z,4.18
2023-03-20T04:10:02.462Z,3.80
2023-03-20T04:12:43.735Z,3.20
2023-03-20T04:15:12.125Z,3.80
2023-03-20T04:17:39.158Z,2.58
2023-03-20T04:20:08.232Z,3.55
2023-03-20T04:22:35.115Z,2.63
2023-03-20T04:25:17.382Z,2.65
2023-03-20T04:27:44.036Z,3.03
2023-03-20T04:30:18.821Z,4.10
2023-03-20T04:33:21.214Z,2.65
2023-03-20T04:36:12.643Z,2.97
2023-03-20T04:38:40.542Z,2.38
2023-03-20T04:41:08.194Z,2.08
2023-03-20T04:43:35.291Z,2.35
2023-03-20T04:46:02.007Z,2.03
2023-03-20T04:48:28.950Z,1.77
2023-03-20T04:50:56.229Z,1.67
2023-03-20T04:53:29.226Z,2.65
2023-03-20T04:55:55.994Z,1.33
2023-03-20T04:58:23.736Z,1.67
2023-03-20T05:00:50.783Z,1.55
2023-03-20T05:03:17.598Z,2.95
2023-03-20T05:05:44.434Z,1.30
2023-03-20T05:08:11.351Z,1.80
2023-03-20T05:10:39.148Z,1.70
2023-03-20T05:13:14.971Z,1.75
2023-03-20T05:16:05.018Z,2.47
2023-03-20T05:18:31.997Z,1.83
2023-03-20T05:21:21.416Z,1.00
2023-03-20T05:27:01.081Z,3.08
2023-03-20T05:29:46.509Z,1.35
2023-03-20T05:32:16.204Z,1.42
2023-03-20T05:35:07.103Z,1.67
2023-03-20T05:37:52.072Z,2.03
2023-03-20T05:40:44.082Z,1.77
2023-03-20T05:43:21.797Z,1.88
2023-03-20T05:46:08.750Z,1.98
2023-03-20T05:48:38.316Z,2.15
2023-03-20T05:51:17.789Z,1.58
2023-03-20T05:54:03.068Z,1.13
2023-03-20T05:56:53.920Z,2.08
2023-03-20T05:59:27.201Z,1.65
2023-03-20T06:02:24.454Z,1.23
2023-03-20T06:04:59.445Z,1.75
2023-03-20T06:07:34.714Z,2.67
2023-03-20T06:10:07.555Z,3.20
2023-03-20T06:12:34.234Z,2.47
2023-03-20T06:15:00.975Z,2.38
2023-03-20T06:17:30.516Z,1.65
2023-03-20T06:20:03.482Z,2.20
2023-03-20T06:22:31.162Z,2.58
2023-03-20T06:24:58.096Z,2.33
2023-03-20T06:27:31.578Z,2.30
2023-03-20T06:29:58.279Z,7.07
2023-03-20T06:32:31.187Z,2.83
2023-03-20T06:35:00.053Z,3.05
2023-03-20T06:37:27.190Z,2.08
2023-03-20T06:40:01.172Z,3.55
2023-03-20T06:42:28.798Z,1.80
2023-03-20T06:44:56.733Z,1.50
2023-03-20T06:47:48.444Z,1.37
2023-03-20T06:50:15.781Z,1.75
2023-03-20T06:52:43.004Z,1.13
2023-03-20T06:55:28.512Z,1.83
2023-03-20T06:57:55.642Z,1.00
2023-03-20T07:00:22.842Z,1.40
2023-03-20T07:02:49.670Z,2.72
2023-03-20T07:05:17.572Z,2.60
2023-03-20T07:07:44.926Z,0.95
2023-03-20T07:10:12.532Z,3.83
2023-03-20T07:12:42.421Z,1.40
2023-03-20T07:15:09.552Z,0.80
2023-03-20T07:17:36.323Z,1.08
2023-03-20T07:20:04.701Z,0.90
2023-03-20T07:22:34.146Z,1.70
2023-03-20T07:25:15.448Z,1.25
2023-03-20T07:27:43.071Z,2.13
2023-03-20T07:30:11.016Z,1.33
2023-03-20T07:32:39.798Z,1.20
2023-03-20T07:35:07.291Z,2.08
2023-03-20T07:37:34.463Z,1.25
2023-03-20T07:40:02.722Z,1.75
2023-03-20T07:42:31.998Z,5.30
2023-03-20T07:45:06.825Z,4.47
2023-03-20T07:47:33.827Z,2.50
2023-03-20T07:50:07.688Z,1.92
2023-03-20T07:52:34.912Z,1.40
2023-03-20T07:55:01.736Z,1.20
2023-03-20T07:57:28.449Z,2.67
2023-03-20T07:59:56.920Z,4.80
2023-03-20T08:02:23.564Z,1.50
2023-03-20T08:04:50.313Z,3.38
2023-03-20T08:07:17.200Z,4.43
2023-03-20T08:09:44.014Z,2.55
2023-03-20T08:12:10.885Z,2.63
2023-03-20T08:14:38.763Z,1.33
2023-03-20T08:17:14.263Z,0.98
2023-03-20T08:19:41.978Z,3.85
2023-03-20T08:22:08.753Z,1.90
2023-03-20T08:24:35.513Z,1.20
2023-03-20T08:27:02.245Z,0.60
2023-03-20T08:29:28.995Z,1.50
2023-03-20T08:31:56.180Z,1.90
2023-03-20T08:34:24.134Z,0.98
2023-03-20T08:36:52.461Z,1.60
2023-03-20T08:39:19.150Z,1.10
2023-03-20T08:41:45.929Z,3.03
2023-03-20T08:44:13.604Z,1.40
2023-03-20T08:46:40.314Z,0.57
2023-03-20T08:49:07.302Z,0.60
2023-03-20T08:51:34.065Z,0.80
2023-03-20T08:54:00.867Z,1.85
2023-03-20T08:56:27.737Z,0.75
2023-03-20T08:58:56.135Z,1.55
2023-03-20T09:01:23.486Z,2.50
2023-03-20T09:03:50.516Z,0.60
2023-03-20T09:06:17.253Z,0.68
2023-03-20T09:08:43.959Z,1.55
2023-03-20T09:11:10.700Z,0.50
2023-03-20T09:13:37.612Z,1.52
2023-03-20T09:16:04.859Z,1.25
2023-03-20T09:18:31.643Z,1.50
2023-03-20T09:20:58.354Z,1.95
2023-03-20T09:23:25.205Z,1.05
2023-03-20T09:25:51.872Z,1.92
2023-03-20T09:28:18.541Z,0.95
2023-03-20T09:30:45.834Z,1.35
2023-03-20T09:33:14.488Z,0.85
2023-03-20T09:35:43.681Z,0.73
2023-03-20T09:38:12.334Z,0.73
2023-03-20T09:40:52.959Z,0.68
2023-03-20T09:43:44.663Z,3.13
2023-03-20T09:46:32.641Z,1.00
2023-03-20T09:49:16.791Z,1.08
2023-03-20T09:51:59.412Z,1.10
2023-03-20T09:54:47.062Z,1.20
2023-03-20T09:57:23.794Z,0.55
2023-03-20T09:59:55.529Z,5.95
2023-03-20T10:02:44.097Z,1.65
2023-03-20T10:05:29.868Z,1.08
2023-03-20T10:08:02.536Z,0.98
2023-03-20T10:10:38.686Z,2.63
2023-03-20T10:13:55.768Z,0.95
2023-03-20T10:16:37.578Z,1.00
2023-03-20T10:19:07.239Z,1.30
2023-03-20T10:21:44.959Z,0.95
2023-03-20T10:24:49.823Z,1.45
2023-03-20T10:27:34.045Z,1.08
2023-03-20T10:30:13.653Z,0.82
2023-03-20T10:33:08.251Z,2.08
2023-03-20T10:35:57.726Z,1.58
2023-03-20T10:38:48.949Z,1.10
2023-03-20T10:41:32.325Z,1.52
2023-03-20T10:44:01.174Z,0.90
2023-03-20T10:46:33.104Z,2.47
2023-03-20T10:49:18.925Z,0.98
2023-03-20T10:51:54.945Z,0.70
2023-03-20T10:54:29.031Z,2.08
2023-03-20T10:56:59.298Z,0.85
2023-03-20T10:59:43.986Z,0.80
2023-03-20T11:02:12.722Z,0.95
2023-03-20T11:04:39.771Z,0.82
2023-03-20T11:07:31.602Z,0.88
2023-03-20T11:10:04.730Z,0.55
2023-03-20T11:12:36.057Z,2.88
2023-03-20T11:15:14.788Z,1.80
2023-03-20T11:17:41.668Z,0.90
2023-03-20T11:20:11.047Z,0.38
2023-03-20T11:22:38.400Z,0.50
2023-03-20T11:25:05.571Z,2.13
2023-03-20T11:27:34.592Z,1.55
2023-03-20T11:30:06.195Z,3.05
2023-03-20T11:32:36.401Z,4.50
2023-03-20T11:35:19.545Z,1.05
2023-03-20T11:37:48.518Z,1.38
2023-03-20T11:40:25.697Z,1.45
2023-03-20T11:43:14.336Z,1.45
2023-03-20T11:45:47.847Z,1.55
2023-03-20T11:48:19.251Z,0.82
2023-03-20T11:50:52.028Z,0.82
2023-03-20T11:53:39.656Z,1.00
2023-03-20T11:56:11.111Z,2.53
2023-03-20T11:58:58.616Z,0.82
2023-03-20T12:01:27.326Z,0.55
2023-03-20T12:04:06.058Z,0.75
2023-03-20T12:06:46.172Z,2.08
2023-03-20T12:09:25.073Z,2.88
2023-03-20T12:12:14.041Z,1.15
2023-03-20T12:14:48.326Z,1.20
2023-03-20T12:17:30.033Z,0.63
2023-03-20T12:20:03.572Z,0.57
2023-03-20T12:22:43.365Z,1.67
2023-03-20T12:25:28.531Z,1.25
2023-03-20T12:28:06.364Z,0.68
2023-03-20T12:31:05.584Z,1.02
2023-03-20T12:33:42.976Z,1.23
2023-03-20T12:36:16.632Z,1.35
2023-03-20T12:38:44.482Z,0.98
2023-03-20T12:41:12.540Z,0.68
2023-03-20T12:44:20.972Z,1.38
2023-03-20T12:46:57.348Z,1.45
2023-03-20T12:49:39.253Z,0.98
2023-03-20T12:52:14.846Z,0.50
2023-03-20T12:55:10.656Z,0.63
2023-03-20T12:57:49.353Z,1.67
2023-03-20T13:00:32.147Z,0.40
2023-03-20T13:03:17.949Z,1.05
2023-03-20T13:05:55.386Z,0.55
2023-03-20T13:08:34.348Z,0.35
2023-03-20T13:11:16.061Z,1.08
2023-03-20T13:14:07.303Z,0.82
2023-03-20T13:16:51.277Z,1.38
2023-03-20T13:19:45.362Z,0.20
2023-03-20T13:22:20.676Z,0.85
2023-03-20T13:24:55.260Z,0.60
2023-03-20T13:27:41.645Z,0.70
2023-03-20T13:30:30.406Z,0.70
2023-03-20T13:33:24.602Z,0.60
2023-03-20T13:36:16.492Z,0.77
2023-03-20T13:38:48.462Z,0.50
2023-03-20T13:41:16.397Z,0.50
2023-03-20T13:43:54.422Z,1.20
2023-03-20T13:46:31.782Z,0.30
2023-03-20T13:49:05.949Z,1.25
2023-03-20T13:52:16.268Z,0.30
2023-03-20T13:55:01.225Z,1.65
2023-03-20T13:57:54.056Z,2.45
2023-03-20T14:00:39.246Z,0.95
2023-03-20T14:03:26.372Z,1.80
2023-03-20T14:05:53.010Z,0.95
2023-03-20T14:08:30.703Z,1.02
2023-03-20T14:11:12.324Z,0.98
2023-03-20T14:13:40.031Z,1.00
2023-03-20T14:16:14.040Z,0.88
2023-03-20T14:18:43.637Z,0.77
2023-03-20T14:21:18.028Z,1.02
2023-03-20T14:23:50.670Z,1.15
2023-03-20T14:26:41.820Z,1.25
2023-03-20T14:29:11.636Z,1.05
2023-03-20T14:31:42.036Z,1.75
2023-03-20T14:34:14.839Z,1.17
2023-03-20T14:36:44.496Z,1.70
2023-03-20T14:39:42.179Z,1.08
2023-03-20T14:42:15.026Z,1.48
2023-03-20T14:45:14.187Z,2.47
2023-03-20T14:47:43.661Z,3.55
2023-03-20T14:50:18.803Z,1.02
2023-03-20T14:52:54.544Z,2.05
2023-03-20T14:55:21.219Z,1.13
2023-03-20T14:57:56.589Z,1.92
2023-03-20T15:00:27.728Z,1.67
2023-03-20T15:03:05.480Z,1.40
2023-03-20T15:05:35.158Z,1.35
2023-03-20T15:08:11.055Z,1.17
2023-03-20T15:10:47.259Z,1.63
2023-03-20T15:13:15.969Z,2.00
2023-03-20T15:15:56.461Z,1.52
2023-03-20T15:18:25.793Z,2.08
2023-03-20T15:20:53.162Z,1.85
2023-03-20T15:23:20.270Z,2.00
2023-03-20T15:25:49.244Z,2.13
2023-03-20T15:28:22.428Z,2.40
2023-03-20T15:30:51.771Z,2.17
2023-03-20T15:33:26.491Z,2.45
2023-03-20T15:35:53.473Z,2.50
2023-03-20T15:38:20.925Z,1.10
2023-03-20T15:40:51.358Z,1.73
2023-03-20T15:43:22.535Z,1.75
2023-03-20T15:45:50.789Z,1.48
2023-03-20T15:48:20.490Z,1.10
2023-03-20T15:50:54.558Z,2.75
2023-03-20T15:53:29.401Z,1.13
2023-03-20T15:56:17.244Z,1.27
2023-03-20T15:58:46.821Z,2.58
2023-03-20T16:01:19.546Z,1.40
2023-03-20T16:03:47.268Z,3.88
2023-03-20T16:06:17.942Z,1.92
2023-03-20T16:08:46.897Z,2.05
2023-03-20T16:11:16.989Z,1.38
2023-03-20T16:13:49.830Z,3.40
2023-03-20T16:16:20.078Z,1.88
2023-03-20T16:18:50.572Z,1.50
2023-03-20T16:21:32.394Z,1.88
2023-03-20T16:24:01.377Z,3.83
2023-03-20T16:26:28.521Z,3.63
2023-03-20T16:28:58.568Z,1.67
2023-03-20T16:31:36.589Z,3.22
2023-03-20T16:34:09.697Z,4.07
2023-03-20T16:36:38.448Z,2.40
2023-03-20T16:39:09.788Z,3.05
2023-03-20T16:41:39.195Z,2.80
2023-03-20T16:44:18.436Z,4.15
2023-03-20T16:46:58.234Z,2.35
2023-03-20T16:49:34.515Z,2.50
2023-03-20T16:52:15.090Z,4.30
2023-03-20T16:54:41.957Z,3.97
2023-03-20T16:57:15.138Z,3.65
2023-03-20T16:59:42.098Z,4.43
2023-03-20T17:02:22.486Z,6.32
2023-03-20T17:04:49.907Z,4.72
2023-03-20T17:07:19.281Z,5.28
2023-03-20T17:10:11.867Z,3.13
2023-03-20T17:12:40.883Z,3.97
2023-03-20T17:15:08.163Z,3.55
2023-03-20T17:17:34.825Z,3.72
2023-03-20T17:20:01.707Z,5.18
2023-03-20T17:22:30.382Z,4.55
2023-03-20T17:24:57.101Z,4.72
2023-03-20T17:27:23.889Z,3.55
2023-03-20T17:29:50.562Z,3.17
2023-03-20T17:32:20.106Z,2.50
2023-03-20T17:34:47.221Z,2.47
2023-03-20T17:37:17.464Z,2.83
2023-03-20T17:39:44.170Z,7.35
2023-03-20T17:42:18.881Z,5.18
2023-03-20T17:44:46.772Z,2.78
2023-03-20T17:47:18.890Z,5.25
2023-03-20T17:52:17.834Z,5.03
2023-03-20T17:54:45.871Z,4.20
2023-03-20T17:57:28.113Z,3.25
2023-03-20T17:59:54.802Z,2.50
2023-03-20T18:02:21.544Z,5.45
2023-03-20T18:04:48.564Z,5.22
2023-03-20T18:07:17.121Z,6.07
2023-03-20T18:09:44.746Z,5.47
2023-03-20T18:12:15.536Z,6.65
2023-03-20T18:14:42.957Z,8.40
2023-03-20T18:17:12.914Z,12.98
2023-03-20T18:19:39.835Z,11.60
2023-03-20T18:22:07.152Z,7.35
2023-03-20T18:24:33.976Z,7.22
2023-03-20T18:27:00.960Z,5.93
2023-03-20T18:29:27.953Z,6.90
2023-03-20T18:31:54.836Z,15.30
2023-03-20T18:34:21.464Z,8.13
2023-03-20T18:36:48.156Z,9.02
2023-03-20T18:39:18.766Z,7.18
2023-03-20T18:41:46.249Z,6.20
2023-03-20T18:44:13.165Z,7.90
2023-03-20T18:46:40.418Z,8.15
2023-03-20T18:49:07.290Z,9.98
2023-03-20T18:51:34.068Z,6.00
2023-03-20T18:54:00.713Z,9.82
2023-03-20T18:56:28.382Z,7.50
2023-03-20T18:58:55.122Z,7.13
2023-03-20T19:01:21.855Z,11.60
2023-03-20T19:03:49.165Z,7.65
2023-03-20T19:06:18.840Z,7.53
2023-03-20T19:08:47.027Z,8.82
2023-03-20T19:11:20.564Z,8.68
2023-03-20T19:13:51.135Z,7.82
2023-03-20T19:16:27.017Z,8.48
2023-03-20T19:18:55.888Z,9.75
2023-03-20T19:21:26.460Z,7.60
2023-03-20T19:23:59.345Z,5.85
2023-03-20T19:26:28.594Z,6.07
2023-03-20T19:28:57.844Z,5.05
2023-03-20T19:31:25.812Z,4.68
2023-03-20T19:33:53.181Z,4.63
2023-03-20T19:36:25.745Z,5.28
2023-03-20T19:38:52.949Z,3.40
2023-03-20T19:41:20.256Z,4.22
2023-03-20T19:43:52.861Z,4.05
2023-03-20T19:46:38.046Z,5.18
2023-03-20T19:49:06.630Z,4.25
2023-03-20T19:51:33.828Z,5.15
2023-03-20T19:54:00.705Z,5.72
2023-03-20T19:56:27.529Z,6.18
2023-03-20T19:58:54.850Z,4.53
2023-03-20T20:01:25.175Z,6.25
2023-03-20T20:03:53.673Z,4.53
2023-03-20T20:06:22.470Z,4.25
2023-03-20T20:08:51.249Z,4.20
2023-03-20T20:11:19.720Z,5.30
2023-03-20T20:14:04.766Z,3.90
2023-03-20T20:16:32.952Z,3.50
2023-03-20T20:18:59.678Z,6.53
2023-03-20T20:24:12.989Z,3.95
2023-03-20T20:26:49.293Z,3.83
2023-03-20T20:29:20.743Z,4.95
2023-03-20T20:31:47.445Z,7.55
2023-03-20T20:35:14.907Z,8.43
2023-03-20T20:39:47.623Z,8.20
2023-03-20T20:42:14.675Z,9.27
2023-03-20T20:44:41.433Z,5.95
2023-03-20T20:47:08.700Z,8.00
2023-03-20T20:49:36.168Z,8.40
2023-03-20T20:52:02.999Z,7.85
2023-03-20T20:54:29.711Z,7.70
2023-03-20T20:56:56.629Z,8.15
2023-03-20T20:59:23.509Z,12.20
2023-03-20T21:01:50.786Z,10.60
2023-03-20T21:04:17.827Z,10.73
2023-03-20T21:07:07.415Z,12.25
2023-03-20T21:09:31.580Z,15.00
2023-03-20T21:11:58.336Z,13.23
2023-03-20T21:14:25.341Z,14.88
2023-03-20T21:16:51.983Z,16.95
2023-03-20T21:19:19.283Z,12.68
2023-03-20T21:21:46.146Z,8.00
2023-03-20T21:24:30.960Z,8.48
2023-03-20T21:26:59.827Z,8.48
2023-03-20T21:29:26.872Z,7.88
2023-03-20T21:31:53.666Z,8.63
2023-03-20T21:34:20.728Z,10.65
2023-03-20T21:36:49.172Z,7.85
2023-03-20T21:39:17.924Z,10.25
2023-03-20T21:41:45.017Z,11.05
2023-03-20T21:44:17.161Z,10.07
2023-03-20T21:47:33.108Z,9.60
2023-03-20T22:01:29.793Z,10.40
2023-03-20T22:04:06.261Z,11.65
2023-03-20T22:17:59.397Z,10.90
2023-03-20T22:32:33.403Z,13.45
2023-03-20T22:35:22.417Z,15.32
2023-03-20T22:40:43.093Z,10.00
2023-03-20T22:45:31.543Z,10.65
2023-03-20T22:48:05.696Z,11.05
2023-03-20T22:50:32.471Z,9.95
2023-03-20T22:52:59.197Z,8.27
2023-03-20T22:55:26.191Z,10.40
2023-03-20T22:58:06.385Z,9.85
2023-03-20T23:00:35.020Z,9.20
2023-03-20T23:03:15.293Z,8.55
2023-03-20T23:08:12.025Z,6.35
2023-03-20T23:10:43.901Z,6.82
2023-03-20T23:13:11.421Z,7.57
2023-03-20T23:15:38.747Z,6.35
2023-03-20T23:18:06.527Z,6.63
2023-03-20T23:20:33.704Z,5.55
2023-03-20T23:23:00.407Z,5.68
2023-03-20T23:25:38.616Z,6.80
2023-03-20T23:28:09.869Z,8.48
2023-03-20T23:30:46.541Z,5.97
2023-03-20T23:33:18.517Z,8.65
2023-03-20T23:35:45.288Z,6.82
2023-03-20T23:38:11.975Z,7.25
2023-03-20T23:40:38.932Z,5.88
2023-03-20T23:43:05.775Z,6.63
2023-03-20T23:45:32.758Z,7.07
2023-03-20T23:47:59.544Z,6.75
2023-03-20T23:50:34.260Z,6.60
2023-03-20T23:53:19.448Z,5.70
2023-03-20T23:55:49.147Z,6.35
2023-03-20T23:58:16.348Z,5.18
